sensor_id;sensor_type;location;lat;lon;timestamp;pressure;altitude;pressure_sealevel;temperature
11321;BMP180;5715;48.234;14.320;2024-03-29T00:01:22;97549.00;;;12.30
11321;BMP180;5715;48.234;14.320;2024-03-29T00:04:09;97554.00;;;12.30
11321;BMP180;5715;48.234;14.320;2024-03-29T00:06:55;97555.00;;;12.20
11321;BMP180;5715;48.234;14.320;2024-03-29T00:09:42;97558.00;;;12.30
11321;BMP180;5715;48.234;14.320;2024-03-29T00:12:28;97563.00;;;12.30
11321;BMP180;5715;48.234;14.320;2024-03-29T00:15:15;97568.00;;;12.20
11321;BMP180;5715;48.234;14.320;2024-03-29T00:18:02;97573.00;;;12.10
11321;BMP180;5715;48.234;14.320;2024-03-29T00:20:50;97572.00;;;12.20
11321;BMP180;5715;48.234;14.320;2024-03-29T00:23:36;97576.00;;;12.20
11321;BMP180;5715;48.234;14.320;2024-03-29T00:26:23;97566.00;;;11.90
11321;BMP180;5715;48.234;14.320;2024-03-29T00:29:10;97569.00;;;12.20
11321;BMP180;5715;48.234;14.320;2024-03-29T00:31:56;97568.00;;;12.40
11321;BMP180;5715;48.234;14.320;2024-03-29T00:34:43;97569.00;;;12.50
11321;BMP180;5715;48.234;14.320;2024-03-29T00:37:30;97582.00;;;12.60
11321;BMP180;5715;48.234;14.320;2024-03-29T00:40:17;97573.00;;;12.70
11321;BMP180;5715;48.234;14.320;2024-03-29T00:43:03;97583.00;;;12.60
11321;BMP180;5715;48.234;14.320;2024-03-29T00:45:50;97587.00;;;12.50
11321;BMP180;5715;48.234;14.320;2024-03-29T00:48:37;97582.00;;;12.50
11321;BMP180;5715;48.234;14.320;2024-03-29T00:51:23;97574.00;;;12.60
11321;BMP180;5715;48.234;14.320;2024-03-29T00:54:10;97580.00;;;12.60
11321;BMP180;5715;48.234;14.320;2024-03-29T00:56:57;97581.00;;;12.50
11321;BMP180;5715;48.234;14.320;2024-03-29T00:59:44;97572.00;;;12.50
11321;BMP180;5715;48.234;14.320;2024-03-29T01:02:31;97572.00;;;12.50
11321;BMP180;5715;48.234;14.320;2024-03-29T01:05:17;97574.00;;;12.50
11321;BMP180;5715;48.234;14.320;2024-03-29T01:08:04;97564.00;;;12.30
11321;BMP180;5715;48.234;14.320;2024-03-29T01:10:51;97555.00;;;12.60
11321;BMP180;5715;48.234;14.320;2024-03-29T01:13:38;97556.00;;;12.60
11321;BMP180;5715;48.234;14.320;2024-03-29T01:16:24;97564.00;;;12.60
11321;BMP180;5715;48.234;14.320;2024-03-29T01:19:11;97583.00;;;12.50
11321;BMP180;5715;48.234;14.320;2024-03-29T01:21:58;97590.00;;;12.50
11321;BMP180;5715;48.234;14.320;2024-03-29T01:24:44;97588.00;;;12.40
11321;BMP180;5715;48.234;14.320;2024-03-29T01:27:31;97592.00;;;12.50
11321;BMP180;5715;48.234;14.320;2024-03-29T01:30:17;97576.00;;;12.40
11321;BMP180;5715;48.234;14.320;2024-03-29T01:33:05;97571.00;;;12.40
11321;BMP180;5715;48.234;14.320;2024-03-29T01:35:52;97557.00;;;12.30
11321;BMP180;5715;48.234;14.320;2024-03-29T01:38:39;97564.00;;;12.30
11321;BMP180;5715;48.234;14.320;2024-03-29T01:41:26;97567.00;;;12.30
11321;BMP180;5715;48.234;14.320;2024-03-29T01:44:16;97565.00;;;12.30
11321;BMP180;5715;48.234;14.320;2024-03-29T01:47:02;97575.00;;;12.30
11321;BMP180;5715;48.234;14.320;2024-03-29T01:49:49;97570.00;;;12.30
11321;BMP180;5715;48.234;14.320;2024-03-29T01:52:36;97553.00;;;12.20
11321;BMP180;5715;48.234;14.320;2024-03-29T01:55:23;97551.00;;;12.20
11321;BMP180;5715;48.234;14.320;2024-03-29T01:58:10;97549.00;;;12.10
11321;BMP180;5715;48.234;14.320;2024-03-29T02:00:59;97542.00;;;12.10
11321;BMP180;5715;48.234;14.320;2024-03-29T02:03:47;97538.00;;;12.10
11321;BMP180;5715;48.234;14.320;2024-03-29T02:06:34;97532.00;;;12.10
11321;BMP180;5715;48.234;14.320;2024-03-29T02:09:20;97527.00;;;12.10
11321;BMP180;5715;48.234;14.320;2024-03-29T02:12:07;97524.00;;;12.10
11321;BMP180;5715;48.234;14.320;2024-03-29T02:14:54;97522.00;;;12.00
11321;BMP180;5715;48.234;14.320;2024-03-29T02:17:41;97530.00;;;11.90
11321;BMP180;5715;48.234;14.320;2024-03-29T02:20:28;97521.00;;;11.80
11321;BMP180;5715;48.234;14.320;2024-03-29T02:23:26;97517.00;;;11.80
11321;BMP180;5715;48.234;14.320;2024-03-29T02:26:13;97510.00;;;11.70
11321;BMP180;5715;48.234;14.320;2024-03-29T02:29:00;97496.00;;;11.90
11321;BMP180;5715;48.234;14.320;2024-03-29T02:31:46;97488.00;;;11.90
11321;BMP180;5715;48.234;14.320;2024-03-29T02:34:33;97491.00;;;12.20
11321;BMP180;5715;48.234;14.320;2024-03-29T02:37:20;97493.00;;;12.10
11321;BMP180;5715;48.234;14.320;2024-03-29T02:40:07;97496.00;;;12.10
11321;BMP180;5715;48.234;14.320;2024-03-29T02:42:55;97505.00;;;11.90
11321;BMP180;5715;48.234;14.320;2024-03-29T02:45:44;97520.00;;;12.10
11321;BMP180;5715;48.234;14.320;2024-03-29T02:48:30;97527.00;;;12.10
11321;BMP180;5715;48.234;14.320;2024-03-29T02:51:17;97529.00;;;12.20
11321;BMP180;5715;48.234;14.320;2024-03-29T02:54:03;97525.00;;;12.20
11321;BMP180;5715;48.234;14.320;2024-03-29T02:56:50;97533.00;;;12.30
11321;BMP180;5715;48.234;14.320;2024-03-29T02:59:36;97533.00;;;12.20
11321;BMP180;5715;48.234;14.320;2024-03-29T03:02:25;97525.00;;;11.90
11321;BMP180;5715;48.234;14.320;2024-03-29T03:05:11;97520.00;;;11.80
11321;BMP180;5715;48.234;14.320;2024-03-29T03:07:58;97530.00;;;11.90
11321;BMP180;5715;48.234;14.320;2024-03-29T03:11:04;97523.00;;;11.90
11321;BMP180;5715;48.234;14.320;2024-03-29T03:13:51;97523.00;;;11.80
11321;BMP180;5715;48.234;14.320;2024-03-29T03:16:37;97517.00;;;12.10
11321;BMP180;5715;48.234;14.320;2024-03-29T03:19:24;97523.00;;;12.30
11321;BMP180;5715;48.234;14.320;2024-03-29T03:22:10;97535.00;;;12.20
11321;BMP180;5715;48.234;14.320;2024-03-29T03:24:57;97533.00;;;12.20
11321;BMP180;5715;48.234;14.320;2024-03-29T03:27:44;97530.00;;;12.20
11321;BMP180;5715;48.234;14.320;2024-03-29T03:30:30;97531.00;;;12.10
11321;BMP180;5715;48.234;14.320;2024-03-29T03:33:17;97531.00;;;12.00
11321;BMP180;5715;48.234;14.320;2024-03-29T03:36:04;97525.00;;;12.00
11321;BMP180;5715;48.234;14.320;2024-03-29T03:38:50;97536.00;;;12.20
11321;BMP180;5715;48.234;14.320;2024-03-29T03:41:37;97531.00;;;12.10
11321;BMP180;5715;48.234;14.320;2024-03-29T03:44:23;97533.00;;;12.30
11321;BMP180;5715;48.234;14.320;2024-03-29T03:47:11;97518.00;;;12.20
11321;BMP180;5715;48.234;14.320;2024-03-29T03:49:58;97517.00;;;12.20
11321;BMP180;5715;48.234;14.320;2024-03-29T03:52:44;97515.00;;;12.20
11321;BMP180;5715;48.234;14.320;2024-03-29T03:55:35;97513.00;;;12.20
11321;BMP180;5715;48.234;14.320;2024-03-29T03:58:22;97504.00;;;12.20
11321;BMP180;5715;48.234;14.320;2024-03-29T04:01:09;97504.00;;;12.10
11321;BMP180;5715;48.234;14.320;2024-03-29T04:03:55;97516.00;;;12.00
11321;BMP180;5715;48.234;14.320;2024-03-29T04:06:42;97512.00;;;11.90
11321;BMP180;5715;48.234;14.320;2024-03-29T04:09:28;97515.00;;;11.80
11321;BMP180;5715;48.234;14.320;2024-03-29T04:12:15;97499.00;;;11.80
11321;BMP180;5715;48.234;14.320;2024-03-29T04:15:02;97481.00;;;11.70
11321;BMP180;5715;48.234;14.320;2024-03-29T04:17:49;97482.00;;;11.60
11321;BMP180;5715;48.234;14.320;2024-03-29T04:20:36;97478.00;;;11.60
11321;BMP180;5715;48.234;14.320;2024-03-29T04:23:22;97473.00;;;11.70
11321;BMP180;5715;48.234;14.320;2024-03-29T04:26:09;97467.00;;;11.80
11321;BMP180;5715;48.234;14.320;2024-03-29T04:28:58;97471.00;;;11.80
11321;BMP180;5715;48.234;14.320;2024-03-29T04:31:46;97467.00;;;11.90
11321;BMP180;5715;48.234;14.320;2024-03-29T04:34:34;97465.00;;;12.10
11321;BMP180;5715;48.234;14.320;2024-03-29T04:37:20;97474.00;;;12.00
11321;BMP180;5715;48.234;14.320;2024-03-29T04:40:08;97486.00;;;11.90
11321;BMP180;5715;48.234;14.320;2024-03-29T04:42:55;97486.00;;;12.10
11321;BMP180;5715;48.234;14.320;2024-03-29T04:45:45;97494.00;;;12.10
11321;BMP180;5715;48.234;14.320;2024-03-29T04:48:32;97482.00;;;12.10
11321;BMP180;5715;48.234;14.320;2024-03-29T04:51:18;97472.00;;;12.10
11321;BMP180;5715;48.234;14.320;2024-03-29T04:54:05;97468.00;;;12.00
11321;BMP180;5715;48.234;14.320;2024-03-29T04:56:53;97475.00;;;12.00
11321;BMP180;5715;48.234;14.320;2024-03-29T04:59:40;97477.00;;;12.10
11321;BMP180;5715;48.234;14.320;2024-03-29T05:02:26;97477.00;;;12.20
11321;BMP180;5715;48.234;14.320;2024-03-29T05:05:13;97481.00;;;12.20
11321;BMP180;5715;48.234;14.320;2024-03-29T05:08:00;97493.00;;;12.10
11321;BMP180;5715;48.234;14.320;2024-03-29T05:10:46;97493.00;;;12.00
11321;BMP180;5715;48.234;14.320;2024-03-29T05:13:33;97493.00;;;12.00
11321;BMP180;5715;48.234;14.320;2024-03-29T05:16:21;97497.00;;;12.20
11321;BMP180;5715;48.234;14.320;2024-03-29T05:19:08;97490.00;;;12.30
11321;BMP180;5715;48.234;14.320;2024-03-29T05:21:54;97489.00;;;12.50
11321;BMP180;5715;48.234;14.320;2024-03-29T05:24:41;97490.00;;;12.60
11321;BMP180;5715;48.234;14.320;2024-03-29T05:27:28;97472.00;;;12.30
11321;BMP180;5715;48.234;14.320;2024-03-29T05:30:14;97458.00;;;12.60
11321;BMP180;5715;48.234;14.320;2024-03-29T05:33:03;97458.00;;;12.60
11321;BMP180;5715;48.234;14.320;2024-03-29T05:35:50;97455.00;;;12.80
11321;BMP180;5715;48.234;14.320;2024-03-29T05:38:37;97450.00;;;12.70
11321;BMP180;5715;48.234;14.320;2024-03-29T05:41:24;97452.00;;;12.60
11321;BMP180;5715;48.234;14.320;2024-03-29T05:44:11;97435.00;;;12.80
11321;BMP180;5715;48.234;14.320;2024-03-29T05:46:57;97433.00;;;13.00
11321;BMP180;5715;48.234;14.320;2024-03-29T05:49:44;97431.00;;;13.60
11321;BMP180;5715;48.234;14.320;2024-03-29T05:52:31;97432.00;;;14.10
11321;BMP180;5715;48.234;14.320;2024-03-29T05:55:18;97419.00;;;15.00
11321;BMP180;5715;48.234;14.320;2024-03-29T05:58:04;97413.00;;;15.60
11321;BMP180;5715;48.234;14.320;2024-03-29T06:00:52;97403.00;;;16.00
11321;BMP180;5715;48.234;14.320;2024-03-29T06:03:39;97404.00;;;15.80
11321;BMP180;5715;48.234;14.320;2024-03-29T06:06:25;97396.00;;;16.00
11321;BMP180;5715;48.234;14.320;2024-03-29T06:09:12;97399.00;;;15.40
11321;BMP180;5715;48.234;14.320;2024-03-29T06:11:59;97410.00;;;15.10
11321;BMP180;5715;48.234;14.320;2024-03-29T06:14:46;97412.00;;;15.00
11321;BMP180;5715;48.234;14.320;2024-03-29T06:17:51;97410.00;;;14.80
11321;BMP180;5715;48.234;14.320;2024-03-29T06:20:38;97411.00;;;15.10
11321;BMP180;5715;48.234;14.320;2024-03-29T06:23:25;97406.00;;;14.80
11321;BMP180;5715;48.234;14.320;2024-03-29T06:26:12;97385.00;;;15.00
11321;BMP180;5715;48.234;14.320;2024-03-29T06:28:58;97385.00;;;14.90
11321;BMP180;5715;48.234;14.320;2024-03-29T06:31:45;97396.00;;;14.80
11321;BMP180;5715;48.234;14.320;2024-03-29T06:34:31;97398.00;;;15.00
11321;BMP180;5715;48.234;14.320;2024-03-29T06:37:18;97398.00;;;15.30
11321;BMP180;5715;48.234;14.320;2024-03-29T06:40:08;97393.00;;;15.50
11321;BMP180;5715;48.234;14.320;2024-03-29T06:42:55;97396.00;;;15.90
11321;BMP180;5715;48.234;14.320;2024-03-29T06:45:44;97374.00;;;16.00
11321;BMP180;5715;48.234;14.320;2024-03-29T06:48:31;97361.00;;;16.00
11321;BMP180;5715;48.234;14.320;2024-03-29T06:51:17;97348.00;;;16.20
11321;BMP180;5715;48.234;14.320;2024-03-29T06:54:04;97339.00;;;16.70
11321;BMP180;5715;48.234;14.320;2024-03-29T06:56:51;97338.00;;;16.90
11321;BMP180;5715;48.234;14.320;2024-03-29T06:59:38;97328.00;;;17.30
11321;BMP180;5715;48.234;14.320;2024-03-29T07:02:25;97329.00;;;16.80
11321;BMP180;5715;48.234;14.320;2024-03-29T07:05:12;97331.00;;;17.00
11321;BMP180;5715;48.234;14.320;2024-03-29T07:07:58;97324.00;;;17.30
11321;BMP180;5715;48.234;14.320;2024-03-29T07:10:46;97346.00;;;17.40
11321;BMP180;5715;48.234;14.320;2024-03-29T07:13:33;97354.00;;;17.50
11321;BMP180;5715;48.234;14.320;2024-03-29T07:16:19;97362.00;;;17.80
11321;BMP180;5715;48.234;14.320;2024-03-29T07:19:06;97369.00;;;18.10
11321;BMP180;5715;48.234;14.320;2024-03-29T07:21:52;97355.00;;;17.90
11321;BMP180;5715;48.234;14.320;2024-03-29T07:24:40;97358.00;;;18.30
11321;BMP180;5715;48.234;14.320;2024-03-29T07:27:27;97349.00;;;18.40
11321;BMP180;5715;48.234;14.320;2024-03-29T07:30:16;97351.00;;;18.30
11321;BMP180;5715;48.234;14.320;2024-03-29T07:33:03;97349.00;;;18.10
11321;BMP180;5715;48.234;14.320;2024-03-29T07:35:50;97346.00;;;18.40
11321;BMP180;5715;48.234;14.320;2024-03-29T07:38:37;97354.00;;;18.80
11321;BMP180;5715;48.234;14.320;2024-03-29T07:41:24;97357.00;;;19.10
11321;BMP180;5715;48.234;14.320;2024-03-29T07:44:11;97366.00;;;19.30
11321;BMP180;5715;48.234;14.320;2024-03-29T07:46:58;97376.00;;;19.40
11321;BMP180;5715;48.234;14.320;2024-03-29T07:49:44;97373.00;;;19.60
11321;BMP180;5715;48.234;14.320;2024-03-29T07:52:33;97371.00;;;19.40
11321;BMP180;5715;48.234;14.320;2024-03-29T07:55:20;97353.00;;;19.00
11321;BMP180;5715;48.234;14.320;2024-03-29T07:58:07;97347.00;;;19.10
11321;BMP180;5715;48.234;14.320;2024-03-29T08:00:55;97349.00;;;19.60
11321;BMP180;5715;48.234;14.320;2024-03-29T08:03:42;97340.00;;;19.10
11321;BMP180;5715;48.234;14.320;2024-03-29T08:06:29;97350.00;;;19.40
11321;BMP180;5715;48.234;14.320;2024-03-29T08:09:16;97353.00;;;19.20
11321;BMP180;5715;48.234;14.320;2024-03-29T08:12:03;97337.00;;;19.40
11321;BMP180;5715;48.234;14.320;2024-03-29T08:14:49;97321.00;;;19.50
11321;BMP180;5715;48.234;14.320;2024-03-29T08:17:36;97306.00;;;19.70
11321;BMP180;5715;48.234;14.320;2024-03-29T08:20:23;97304.00;;;19.20
11321;BMP180;5715;48.234;14.320;2024-03-29T08:23:15;97306.00;;;19.80
11321;BMP180;5715;48.234;14.320;2024-03-29T08:26:02;97310.00;;;19.90
11321;BMP180;5715;48.234;14.320;2024-03-29T08:28:49;97298.00;;;20.70
11321;BMP180;5715;48.234;14.320;2024-03-29T08:31:35;97304.00;;;20.50
11321;BMP180;5715;48.234;14.320;2024-03-29T08:34:22;97307.00;;;21.40
11321;BMP180;5715;48.234;14.320;2024-03-29T08:37:09;97307.00;;;21.80
11321;BMP180;5715;48.234;14.320;2024-03-29T08:39:56;97313.00;;;21.50
11321;BMP180;5715;48.234;14.320;2024-03-29T08:42:42;97313.00;;;22.10
11321;BMP180;5715;48.234;14.320;2024-03-29T08:45:29;97313.00;;;21.70
11321;BMP180;5715;48.234;14.320;2024-03-29T08:48:15;97314.00;;;22.10
11321;BMP180;5715;48.234;14.320;2024-03-29T08:51:02;97330.00;;;22.30
11321;BMP180;5715;48.234;14.320;2024-03-29T08:53:49;97323.00;;;22.70
11321;BMP180;5715;48.234;14.320;2024-03-29T08:56:36;97328.00;;;22.80
11321;BMP180;5715;48.234;14.320;2024-03-29T08:59:23;97331.00;;;23.10
11321;BMP180;5715;48.234;14.320;2024-03-29T09:02:10;97330.00;;;23.50
11321;BMP180;5715;48.234;14.320;2024-03-29T09:04:56;97323.00;;;23.50
11321;BMP180;5715;48.234;14.320;2024-03-29T09:07:44;97312.00;;;23.60
11321;BMP180;5715;48.234;14.320;2024-03-29T09:10:32;97313.00;;;23.90
11321;BMP180;5715;48.234;14.320;2024-03-29T09:13:18;97304.00;;;24.60
11321;BMP180;5715;48.234;14.320;2024-03-29T09:16:05;97296.00;;;24.80
11321;BMP180;5715;48.234;14.320;2024-03-29T09:18:54;97297.00;;;24.60
11321;BMP180;5715;48.234;14.320;2024-03-29T09:21:41;97296.00;;;24.80
11321;BMP180;5715;48.234;14.320;2024-03-29T09:24:27;97301.00;;;25.00
11321;BMP180;5715;48.234;14.320;2024-03-29T09:27:14;97295.00;;;24.90
11321;BMP180;5715;48.234;14.320;2024-03-29T09:30:03;97297.00;;;25.20
11321;BMP180;5715;48.234;14.320;2024-03-29T09:32:51;97298.00;;;25.30
11321;BMP180;5715;48.234;14.320;2024-03-29T09:35:38;97291.00;;;24.90
11321;BMP180;5715;48.234;14.320;2024-03-29T09:38:26;97296.00;;;25.30
11321;BMP180;5715;48.234;14.320;2024-03-29T09:41:18;97273.00;;;25.40
11321;BMP180;5715;48.234;14.320;2024-03-29T09:44:06;97284.00;;;25.20
11321;BMP180;5715;48.234;14.320;2024-03-29T09:46:54;97281.00;;;26.10
11321;BMP180;5715;48.234;14.320;2024-03-29T09:49:42;97276.00;;;26.50
11321;BMP180;5715;48.234;14.320;2024-03-29T09:52:34;97273.00;;;26.50
11321;BMP180;5715;48.234;14.320;2024-03-29T09:55:22;97280.00;;;26.80
11321;BMP180;5715;48.234;14.320;2024-03-29T09:58:09;97281.00;;;25.80
11321;BMP180;5715;48.234;14.320;2024-03-29T10:00:56;97280.00;;;26.20
11321;BMP180;5715;48.234;14.320;2024-03-29T10:03:48;97280.00;;;26.50
11321;BMP180;5715;48.234;14.320;2024-03-29T10:06:38;97272.00;;;26.10
11321;BMP180;5715;48.234;14.320;2024-03-29T10:09:25;97268.00;;;26.70
11321;BMP180;5715;48.234;14.320;2024-03-29T10:12:15;97259.00;;;26.90
11321;BMP180;5715;48.234;14.320;2024-03-29T10:15:04;97243.00;;;26.70
11321;BMP180;5715;48.234;14.320;2024-03-29T10:18:01;97259.00;;;26.70
11321;BMP180;5715;48.234;14.320;2024-03-29T10:21:04;97258.00;;;26.60
11321;BMP180;5715;48.234;14.320;2024-03-29T10:23:51;97260.00;;;27.10
11321;BMP180;5715;48.234;14.320;2024-03-29T10:26:38;97246.00;;;27.00
11321;BMP180;5715;48.234;14.320;2024-03-29T10:29:31;97245.00;;;27.00
11321;BMP180;5715;48.234;14.320;2024-03-29T10:32:18;97236.00;;;26.60
11321;BMP180;5715;48.234;14.320;2024-03-29T10:35:05;97225.00;;;27.00
11321;BMP180;5715;48.234;14.320;2024-03-29T10:37:53;97231.00;;;26.60
11321;BMP180;5715;48.234;14.320;2024-03-29T10:40:41;97224.00;;;26.90
11321;BMP180;5715;48.234;14.320;2024-03-29T10:43:28;97219.00;;;26.70
11321;BMP180;5715;48.234;14.320;2024-03-29T10:46:16;97224.00;;;26.70
11321;BMP180;5715;48.234;14.320;2024-03-29T10:49:08;97215.00;;;26.80
11321;BMP180;5715;48.234;14.320;2024-03-29T10:51:59;97202.00;;;26.90
11321;BMP180;5715;48.234;14.320;2024-03-29T10:54:47;97219.00;;;27.60
11321;BMP180;5715;48.234;14.320;2024-03-29T10:57:35;97209.00;;;27.90
11321;BMP180;5715;48.234;14.320;2024-03-29T11:00:33;97201.00;;;27.80
11321;BMP180;5715;48.234;14.320;2024-03-29T11:03:37;97204.00;;;28.30
11321;BMP180;5715;48.234;14.320;2024-03-29T11:06:28;97200.00;;;28.30
11321;BMP180;5715;48.234;14.320;2024-03-29T11:09:20;97202.00;;;28.10
11321;BMP180;5715;48.234;14.320;2024-03-29T11:12:11;97200.00;;;28.60
11321;BMP180;5715;48.234;14.320;2024-03-29T11:15:12;97193.00;;;28.40
11321;BMP180;5715;48.234;14.320;2024-03-29T11:18:02;97188.00;;;28.90
11321;BMP180;5715;48.234;14.320;2024-03-29T11:20:51;97175.00;;;28.40
11321;BMP180;5715;48.234;14.320;2024-03-29T11:23:39;97169.00;;;28.30
11321;BMP180;5715;48.234;14.320;2024-03-29T11:26:26;97179.00;;;28.60
11321;BMP180;5715;48.234;14.320;2024-03-29T11:29:22;97174.00;;;28.80
11321;BMP180;5715;48.234;14.320;2024-03-29T11:32:09;97172.00;;;28.70
11321;BMP180;5715;48.234;14.320;2024-03-29T11:34:56;97174.00;;;28.50
11321;BMP180;5715;48.234;14.320;2024-03-29T11:37:45;97161.00;;;28.30
11321;BMP180;5715;48.234;14.320;2024-03-29T11:40:31;97168.00;;;28.80
11321;BMP180;5715;48.234;14.320;2024-03-29T11:43:18;97163.00;;;29.10
11321;BMP180;5715;48.234;14.320;2024-03-29T11:46:08;97156.00;;;28.70
11321;BMP180;5715;48.234;14.320;2024-03-29T11:48:54;97154.00;;;28.70
11321;BMP180;5715;48.234;14.320;2024-03-29T11:51:41;97142.00;;;28.60
11321;BMP180;5715;48.234;14.320;2024-03-29T11:54:28;97148.00;;;28.30
11321;BMP180;5715;48.234;14.320;2024-03-29T11:57:15;97145.00;;;28.40
11321;BMP180;5715;48.234;14.320;2024-03-29T12:00:02;97134.00;;;28.10
11321;BMP180;5715;48.234;14.320;2024-03-29T12:02:51;97133.00;;;28.50
11321;BMP180;5715;48.234;14.320;2024-03-29T12:05:38;97139.00;;;28.30
11321;BMP180;5715;48.234;14.320;2024-03-29T12:08:26;97140.00;;;27.90
11321;BMP180;5715;48.234;14.320;2024-03-29T12:11:13;97132.00;;;28.60
11321;BMP180;5715;48.234;14.320;2024-03-29T12:14:00;97130.00;;;29.00
11321;BMP180;5715;48.234;14.320;2024-03-29T12:16:47;97132.00;;;29.20
11321;BMP180;5715;48.234;14.320;2024-03-29T12:19:34;97124.00;;;29.20
11321;BMP180;5715;48.234;14.320;2024-03-29T12:22:25;97130.00;;;29.50
11321;BMP180;5715;48.234;14.320;2024-03-29T12:25:12;97131.00;;;29.20
11321;BMP180;5715;48.234;14.320;2024-03-29T12:28:00;97125.00;;;29.20
11321;BMP180;5715;48.234;14.320;2024-03-29T12:30:48;97118.00;;;29.40
11321;BMP180;5715;48.234;14.320;2024-03-29T12:33:35;97127.00;;;29.10
11321;BMP180;5715;48.234;14.320;2024-03-29T12:36:25;97117.00;;;29.20
11321;BMP180;5715;48.234;14.320;2024-03-29T12:39:13;97108.00;;;29.00
11321;BMP180;5715;48.234;14.320;2024-03-29T12:42:00;97107.00;;;29.10
11321;BMP180;5715;48.234;14.320;2024-03-29T12:44:47;97110.00;;;29.70
11321;BMP180;5715;48.234;14.320;2024-03-29T12:47:35;97110.00;;;29.80
11321;BMP180;5715;48.234;14.320;2024-03-29T12:53:15;97098.00;;;29.60
11321;BMP180;5715;48.234;14.320;2024-03-29T12:56:02;97091.00;;;29.70
11321;BMP180;5715;48.234;14.320;2024-03-29T12:58:49;97092.00;;;29.50
11321;BMP180;5715;48.234;14.320;2024-03-29T13:01:35;97092.00;;;29.50
11321;BMP180;5715;48.234;14.320;2024-03-29T13:04:22;97088.00;;;29.70
11321;BMP180;5715;48.234;14.320;2024-03-29T13:07:09;97092.00;;;30.00
11321;BMP180;5715;48.234;14.320;2024-03-29T13:09:55;97092.00;;;30.50
11321;BMP180;5715;48.234;14.320;2024-03-29T13:12:42;97091.00;;;30.30
11321;BMP180;5715;48.234;14.320;2024-03-29T13:15:32;97090.00;;;30.40
11321;BMP180;5715;48.234;14.320;2024-03-29T13:18:19;97066.00;;;29.90
11321;BMP180;5715;48.234;14.320;2024-03-29T13:21:06;97084.00;;;30.30
11321;BMP180;5715;48.234;14.320;2024-03-29T13:23:52;97085.00;;;30.10
11321;BMP180;5715;48.234;14.320;2024-03-29T13:26:39;97071.00;;;30.00
11321;BMP180;5715;48.234;14.320;2024-03-29T13:29:26;97073.00;;;30.30
11321;BMP180;5715;48.234;14.320;2024-03-29T13:32:12;97070.00;;;30.00
11321;BMP180;5715;48.234;14.320;2024-03-29T13:35:00;97073.00;;;30.20
11321;BMP180;5715;48.234;14.320;2024-03-29T13:37:48;97060.00;;;30.10
11321;BMP180;5715;48.234;14.320;2024-03-29T13:40:35;97057.00;;;30.50
11321;BMP180;5715;48.234;14.320;2024-03-29T13:43:22;97045.00;;;30.10
11321;BMP180;5715;48.234;14.320;2024-03-29T13:46:09;97058.00;;;30.90
11321;BMP180;5715;48.234;14.320;2024-03-29T13:48:55;97046.00;;;30.50
11321;BMP180;5715;48.234;14.320;2024-03-29T13:51:42;97047.00;;;30.50
11321;BMP180;5715;48.234;14.320;2024-03-29T13:54:28;97051.00;;;30.70
11321;BMP180;5715;48.234;14.320;2024-03-29T13:57:17;97051.00;;;30.40
11321;BMP180;5715;48.234;14.320;2024-03-29T14:00:04;97046.00;;;30.40
11321;BMP180;5715;48.234;14.320;2024-03-29T14:02:53;97054.00;;;30.50
11321;BMP180;5715;48.234;14.320;2024-03-29T14:05:40;97042.00;;;31.00
11321;BMP180;5715;48.234;14.320;2024-03-29T14:08:26;97042.00;;;31.10
11321;BMP180;5715;48.234;14.320;2024-03-29T14:11:13;97045.00;;;31.60
11321;BMP180;5715;48.234;14.320;2024-03-29T14:14:00;97039.00;;;31.80
11321;BMP180;5715;48.234;14.320;2024-03-29T14:16:47;97041.00;;;31.80
11321;BMP180;5715;48.234;14.320;2024-03-29T14:19:37;97043.00;;;31.40
11321;BMP180;5715;48.234;14.320;2024-03-29T14:22:23;97043.00;;;31.20
11321;BMP180;5715;48.234;14.320;2024-03-29T14:25:11;97033.00;;;31.50
11321;BMP180;5715;48.234;14.320;2024-03-29T14:27:58;97028.00;;;31.60
11321;BMP180;5715;48.234;14.320;2024-03-29T14:30:46;97031.00;;;31.60
11321;BMP180;5715;48.234;14.320;2024-03-29T14:33:32;97030.00;;;31.40
11321;BMP180;5715;48.234;14.320;2024-03-29T14:36:19;97017.00;;;31.80
11321;BMP180;5715;48.234;14.320;2024-03-29T14:39:06;97006.00;;;32.10
11321;BMP180;5715;48.234;14.320;2024-03-29T14:41:53;97000.00;;;31.90
11321;BMP180;5715;48.234;14.320;2024-03-29T14:44:40;97002.00;;;31.80
11321;BMP180;5715;48.234;14.320;2024-03-29T14:47:27;96982.00;;;31.50
11321;BMP180;5715;48.234;14.320;2024-03-29T14:50:14;96980.00;;;31.00
11321;BMP180;5715;48.234;14.320;2024-03-29T14:53:01;96981.00;;;31.30
11321;BMP180;5715;48.234;14.320;2024-03-29T14:55:48;96978.00;;;31.30
11321;BMP180;5715;48.234;14.320;2024-03-29T14:58:35;96979.00;;;31.60
11321;BMP180;5715;48.234;14.320;2024-03-29T15:01:22;96972.00;;;31.20
11321;BMP180;5715;48.234;14.320;2024-03-29T15:04:09;96983.00;;;31.50
11321;BMP180;5715;48.234;14.320;2024-03-29T15:06:55;96987.00;;;31.40
11321;BMP180;5715;48.234;14.320;2024-03-29T15:09:42;96987.00;;;31.20
11321;BMP180;5715;48.234;14.320;2024-03-29T15:12:29;96990.00;;;31.40
11321;BMP180;5715;48.234;14.320;2024-03-29T15:15:15;96992.00;;;31.20
11321;BMP180;5715;48.234;14.320;2024-03-29T15:18:05;96991.00;;;31.50
11321;BMP180;5715;48.234;14.320;2024-03-29T15:21:01;96986.00;;;31.80
11321;BMP180;5715;48.234;14.320;2024-03-29T15:23:50;96997.00;;;31.80
11321;BMP180;5715;48.234;14.320;2024-03-29T15:26:36;96982.00;;;31.40
11321;BMP180;5715;48.234;14.320;2024-03-29T15:29:26;96985.00;;;31.40
11321;BMP180;5715;48.234;14.320;2024-03-29T15:32:13;96988.00;;;31.50
11321;BMP180;5715;48.234;14.320;2024-03-29T15:34:59;96979.00;;;31.50
11321;BMP180;5715;48.234;14.320;2024-03-29T15:37:46;96974.00;;;31.30
11321;BMP180;5715;48.234;14.320;2024-03-29T15:40:33;96982.00;;;31.60
11321;BMP180;5715;48.234;14.320;2024-03-29T15:43:20;96986.00;;;31.80
11321;BMP180;5715;48.234;14.320;2024-03-29T15:46:08;96992.00;;;31.60
11321;BMP180;5715;48.234;14.320;2024-03-29T15:48:55;96988.00;;;31.30
11321;BMP180;5715;48.234;14.320;2024-03-29T15:51:42;96991.00;;;31.40
11321;BMP180;5715;48.234;14.320;2024-03-29T15:54:28;96996.00;;;31.50
11321;BMP180;5715;48.234;14.320;2024-03-29T15:57:15;96991.00;;;31.50
11321;BMP180;5715;48.234;14.320;2024-03-29T16:00:01;96998.00;;;31.40
11321;BMP180;5715;48.234;14.320;2024-03-29T16:02:48;97003.00;;;31.50
11321;BMP180;5715;48.234;14.320;2024-03-29T16:05:35;96996.00;;;31.50
11321;BMP180;5715;48.234;14.320;2024-03-29T16:08:23;97000.00;;;31.20